createdAt,value
2018-01-19T00:01:36.979Z,23.02
2018-01-19T00:04:03.831Z,28.10
2018-01-19T00:06:30.416Z,28.35
2018-01-19T00:08:56.999Z,24.70
2018-01-19T00:11:23.597Z,25.15
2018-01-19T00:13:50.184Z,25.20
2018-01-19T00:16:16.879Z,25.48
2018-01-19T00:18:43.463Z,24.87
2018-01-19T00:21:10.050Z,22.80
2018-01-19T00:23:36.651Z,30.17
2018-01-19T00:26:03.234Z,27.42
2018-01-19T00:28:29.814Z,25.33
2018-01-19T00:30:56.407Z,26.80
2018-01-19T00:33:23.094Z,25.23
2018-01-19T00:35:49.690Z,25.33
2018-01-19T00:38:16.279Z,27.45
2018-01-19T00:40:42.867Z,31.87
2018-01-19T00:43:09.463Z,23.27
2018-01-19T00:45:36.074Z,31.58
2018-01-19T00:48:02.675Z,27.55
2018-01-19T00:50:29.249Z,32.30
2018-01-19T00:52:55.835Z,26.02
2018-01-19T00:55:22.706Z,27.60
2018-01-19T00:57:49.291Z,29.20
2018-01-19T01:00:15.870Z,24.40
2018-01-19T01:02:42.454Z,33.28
2018-01-19T01:05:09.039Z,35.42
2018-01-19T01:07:35.648Z,30.58
2018-01-19T01:10:02.227Z,25.90
2018-01-19T01:12:28.823Z,31.55
2018-01-19T01:14:55.410Z,31.42
2018-01-19T01:17:22.000Z,34.63
2018-01-19T01:19:48.578Z,30.23
2018-01-19T01:22:15.270Z,27.62
2018-01-19T01:24:41.855Z,27.65
2018-01-19T01:27:08.439Z,25.90
2018-01-19T01:29:35.031Z,32.33
2018-01-19T01:32:01.623Z,30.62
2018-01-19T01:34:28.190Z,25.27
2018-01-19T01:36:54.797Z,31.27
2018-01-19T01:39:21.374Z,24.55
2018-01-19T01:41:47.949Z,28.23
2018-01-19T01:44:14.541Z,27.50
2018-01-19T01:46:41.119Z,24.63
2018-01-19T01:49:11.534Z,27.75
2018-01-19T01:51:38.168Z,26.23
2018-01-19T01:54:04.703Z,26.90
2018-01-19T01:56:31.282Z,24.12
2018-01-19T01:58:58.058Z,34.97
2018-01-19T02:01:24.647Z,25.37
2018-01-19T02:03:51.226Z,31.95
2018-01-19T02:06:17.814Z,22.37
2018-01-19T02:08:44.400Z,27.37
2018-01-19T02:11:10.983Z,29.52
2018-01-19T02:13:37.567Z,29.02
2018-01-19T02:16:04.139Z,24.10
2018-01-19T02:18:31.046Z,27.27
2018-01-19T02:20:57.626Z,26.02
2018-01-19T02:23:24.207Z,24.20
2018-01-19T02:25:50.803Z,23.70
2018-01-19T02:28:17.379Z,25.50
2018-01-19T02:30:43.959Z,28.00
2018-01-19T02:33:10.564Z,22.75
2018-01-19T02:35:37.143Z,23.65
2018-01-19T02:38:03.723Z,25.48
2018-01-19T02:40:30.407Z,22.92
2018-01-19T02:42:56.991Z,28.00
2018-01-19T02:45:23.571Z,30.45
2018-01-19T02:47:50.884Z,21.52
2018-01-19T02:50:17.470Z,22.73
2018-01-19T02:52:44.051Z,22.58
2018-01-19T02:55:10.639Z,39.67
2018-01-19T02:57:37.215Z,28.62
2018-01-19T03:00:03.794Z,21.30
2018-01-19T03:02:30.702Z,27.10
2018-01-19T03:04:57.279Z,34.05
2018-01-19T03:07:23.867Z,21.75
2018-01-19T03:09:50.474Z,22.55
2018-01-19T03:12:17.055Z,27.40
2018-01-19T03:14:43.630Z,24.85
2018-01-19T03:17:10.237Z,25.20
2018-01-19T03:19:36.819Z,24.85
2018-01-19T03:22:03.398Z,37.70
2018-01-19T03:24:30.099Z,28.70
2018-01-19T03:26:56.683Z,27.33
2018-01-19T03:29:23.273Z,40.88
2018-01-19T03:31:49.870Z,26.20
2018-01-19T03:34:16.458Z,28.08
2018-01-19T03:36:43.038Z,25.73
2018-01-19T03:39:09.640Z,22.75
2018-01-19T03:41:36.214Z,26.27
2018-01-19T03:44:02.794Z,23.12
2018-01-19T03:46:29.738Z,25.30
2018-01-19T03:48:56.327Z,22.10
2018-01-19T03:51:22.907Z,26.98
2018-01-19T03:53:49.498Z,30.02
2018-01-19T03:56:16.079Z,25.55
2018-01-19T03:58:42.659Z,20.98
2018-01-19T04:01:09.523Z,29.48
2018-01-19T04:03:36.107Z,25.75
2018-01-19T04:06:02.687Z,26.12
2018-01-19T04:08:29.279Z,20.25
2018-01-19T04:10:55.854Z,22.35
2018-01-19T04:13:22.435Z,25.92
2018-01-19T04:15:49.029Z,25.25
2018-01-19T04:18:15.688Z,24.12
2018-01-19T04:20:42.245Z,25.35
2018-01-19T04:23:08.840Z,21.35
2018-01-19T04:25:35.426Z,21.83
2018-01-19T04:28:02.003Z,21.52
2018-01-19T04:30:28.587Z,24.48
2018-01-19T04:32:55.181Z,27.77
2018-01-19T04:35:21.751Z,19.42
2018-01-19T04:37:48.365Z,20.88
2018-01-19T04:40:14.950Z,22.30
2018-01-19T04:42:41.531Z,22.58
2018-01-19T04:45:08.111Z,24.00
2018-01-19T04:47:34.691Z,23.92
2018-01-19T04:50:01.291Z,20.48
2018-01-19T04:52:27.875Z,29.23
2018-01-19T04:54:54.447Z,22.85
2018-01-19T04:57:21.031Z,24.48
2018-01-19T04:59:47.724Z,25.55
2018-01-19T05:02:14.307Z,22.62
2018-01-19T05:04:40.887Z,23.20
2018-01-19T05:07:07.471Z,23.87
2018-01-19T05:09:34.058Z,21.00
2018-01-19T05:12:00.996Z,27.13
2018-01-19T05:14:27.572Z,25.15
2018-01-19T05:16:54.151Z,21.48
2018-01-19T05:19:20.738Z,28.87
2018-01-19T05:21:47.326Z,22.08
2018-01-19T05:24:13.912Z,36.55
2018-01-19T05:26:40.495Z,31.83
2018-01-19T05:29:07.076Z,24.48
2018-01-19T05:31:33.666Z,22.52
2018-01-19T05:34:00.244Z,29.70
2018-01-19T05:36:26.828Z,23.75
2018-01-19T05:38:53.418Z,25.27
2018-01-19T05:41:20.007Z,32.42
2018-01-19T05:43:46.579Z,27.15
2018-01-19T05:46:13.185Z,24.30
2018-01-19T05:48:39.758Z,23.00
2018-01-19T05:51:06.339Z,21.85
2018-01-19T05:53:33.283Z,19.52
2018-01-19T05:55:59.859Z,23.42
2018-01-19T05:58:26.435Z,23.48
2018-01-19T06:00:53.127Z,25.23
2018-01-19T06:03:19.711Z,18.77
2018-01-19T06:05:46.290Z,31.23
2018-01-19T06:08:12.986Z,24.45
2018-01-19T06:10:39.578Z,23.05
2018-01-19T06:13:06.163Z,23.23
2018-01-19T06:15:32.763Z,18.87
2018-01-19T06:17:59.341Z,22.23
2018-01-19T06:20:25.918Z,23.65
2018-01-19T06:22:52.498Z,23.80
2018-01-19T06:25:19.079Z,25.52
2018-01-19T06:27:45.656Z,26.45
2018-01-19T06:30:12.276Z,24.08
2018-01-19T06:32:38.856Z,25.40
2018-01-19T06:35:05.437Z,25.25
2018-01-19T06:37:32.055Z,25.35
2018-01-19T06:39:58.643Z,25.25
2018-01-19T06:42:25.227Z,24.40
2018-01-19T06:44:51.839Z,27.85
2018-01-19T06:47:18.427Z,32.03
2018-01-19T06:49:44.998Z,23.48
2018-01-19T06:52:11.710Z,22.85
2018-01-19T06:54:38.292Z,25.42
2018-01-19T06:57:04.883Z,25.65
2018-01-19T06:59:31.488Z,30.02
2018-01-19T07:01:58.067Z,24.65
2018-01-19T07:04:24.649Z,28.62
2018-01-19T07:06:51.239Z,25.83
2018-01-19T07:09:17.819Z,33.03
2018-01-19T07:11:44.403Z,26.27
2018-01-19T07:14:10.981Z,20.42
2018-01-19T07:16:37.565Z,21.52
2018-01-19T07:19:04.147Z,23.38
2018-01-19T07:21:30.751Z,21.15
2018-01-19T07:23:57.334Z,27.40
2018-01-19T07:26:23.915Z,23.35
2018-01-19T07:28:51.391Z,25.58
2018-01-19T07:31:17.977Z,23.12
2018-01-19T07:33:44.555Z,23.98
2018-01-19T07:36:11.158Z,27.15
2018-01-19T07:38:37.731Z,18.65
2018-01-19T07:41:04.315Z,31.05
2018-01-19T07:43:31.031Z,25.92
2018-01-19T07:45:58.101Z,23.48
2018-01-19T07:48:24.679Z,22.80
2018-01-19T07:50:51.503Z,25.85
2018-01-19T07:53:18.351Z,20.27
2018-01-19T07:55:44.936Z,22.90
2018-01-19T07:58:11.527Z,22.52
2018-01-19T08:00:38.107Z,22.95
2018-01-19T08:03:04.708Z,20.40
2018-01-19T08:05:31.296Z,23.70
2018-01-19T08:07:57.879Z,27.73
2018-01-19T08:10:24.468Z,27.55
2018-01-19T08:12:51.314Z,21.95
2018-01-19T08:15:17.894Z,21.87
2018-01-19T08:17:44.481Z,26.87
2018-01-19T08:20:11.450Z,22.52
2018-01-19T08:22:38.031Z,26.77
2018-01-19T08:25:04.607Z,28.95
2018-01-19T08:27:31.200Z,22.50
2018-01-19T08:29:57.776Z,23.10
2018-01-19T08:32:24.360Z,21.15
2018-01-19T08:34:50.946Z,22.37
2018-01-19T08:37:17.530Z,22.50
2018-01-19T08:39:44.117Z,22.05
2018-01-19T08:42:10.703Z,22.13
2018-01-19T08:44:37.547Z,21.83
2018-01-19T08:47:04.124Z,23.23
2018-01-19T08:49:30.711Z,24.63
2018-01-19T08:51:57.617Z,23.87
2018-01-19T08:54:24.190Z,22.80
2018-01-19T08:56:50.775Z,23.87
2018-01-19T08:59:17.354Z,27.77
2018-01-19T09:01:43.951Z,26.85
2018-01-19T09:04:10.531Z,26.92
2018-01-19T09:06:37.119Z,26.65
2018-01-19T09:09:03.739Z,23.30
2018-01-19T09:11:30.318Z,22.37
2018-01-19T09:13:56.908Z,30.75
2018-01-19T09:16:23.600Z,24.05
2018-01-19T09:18:50.591Z,21.17
2018-01-19T09:21:17.171Z,23.12
2018-01-19T09:23:43.759Z,25.05
2018-01-19T09:26:10.339Z,28.83
2018-01-19T09:28:36.927Z,27.13
2018-01-19T09:31:03.539Z,28.05
2018-01-19T09:33:30.124Z,28.08
2018-01-19T09:35:56.702Z,23.30
2018-01-19T09:38:23.317Z,28.20
2018-01-19T09:40:49.903Z,27.62
2018-01-19T09:43:16.484Z,30.23
2018-01-19T09:45:43.238Z,26.60
2018-01-19T09:48:09.830Z,29.65
2018-01-19T09:50:36.421Z,36.25
2018-01-19T09:53:03.003Z,51.78
2018-01-19T09:55:29.591Z,37.85
2018-01-19T09:57:56.184Z,31.37
2018-01-19T10:00:22.762Z,31.42
2018-01-19T10:02:49.348Z,32.63
2018-01-19T10:05:15.963Z,34.72
2018-01-19T10:07:42.542Z,31.62
2018-01-19T10:10:09.135Z,35.75
2018-01-19T10:12:36.767Z,32.38
2018-01-19T10:15:03.345Z,37.60
2018-01-19T10:17:29.958Z,41.28
2018-01-19T10:19:56.542Z,36.63
2018-01-19T10:22:23.129Z,41.78
2018-01-19T10:24:49.721Z,42.90
2018-01-19T10:27:16.316Z,34.53
2018-01-19T10:29:42.895Z,33.45
2018-01-19T10:32:09.490Z,36.90
2018-01-19T10:34:36.115Z,44.08
2018-01-19T10:37:02.802Z,47.72
2018-01-19T10:39:29.401Z,41.97
2018-01-19T10:41:56.000Z,43.28
2018-01-19T10:44:22.587Z,49.85
2018-01-19T10:46:49.211Z,51.03
2018-01-19T10:49:15.817Z,47.67
2018-01-19T10:51:42.415Z,57.92
2018-01-19T10:54:09.016Z,49.70
2018-01-19T10:56:35.621Z,56.45
2018-01-19T10:59:02.223Z,45.80
2018-01-19T11:01:28.810Z,53.72
2018-01-19T11:03:55.399Z,46.85
2018-01-19T11:06:22.083Z,56.08
2018-01-19T11:08:48.703Z,54.50
2018-01-19T11:11:15.306Z,56.67
2018-01-19T11:13:41.896Z,49.88
2018-01-19T11:16:08.507Z,48.80
2018-01-19T11:18:35.098Z,42.75
2018-01-19T11:21:01.680Z,50.35
2018-01-19T11:23:28.350Z,47.10
2018-01-19T11:25:54.939Z,53.85
2018-01-19T11:28:21.518Z,47.55
2018-01-19T11:30:48.359Z,48.80
2018-01-19T11:33:14.943Z,49.75
2018-01-19T11:35:41.620Z,52.17
2018-01-19T11:38:08.227Z,119.90
2018-01-19T11:40:34.810Z,50.38
2018-01-19T11:43:01.432Z,47.90
2018-01-19T11:45:28.022Z,52.00
2018-01-19T11:47:54.611Z,60.83
2018-01-19T11:50:21.191Z,53.15
2018-01-19T11:52:47.791Z,52.00
2018-01-19T11:55:14.374Z,50.53
2018-01-19T11:57:40.947Z,56.97
2018-01-19T12:00:07.766Z,57.20
2018-01-19T12:02:34.346Z,50.00
2018-01-19T12:05:00.932Z,46.22
2018-01-19T12:07:27.524Z,57.17
2018-01-19T12:09:54.106Z,52.47
2018-01-19T12:12:20.693Z,57.65
2018-01-19T12:14:47.280Z,54.95
2018-01-19T12:17:13.893Z,66.72
2018-01-19T12:19:40.476Z,67.07
2018-01-19T12:22:07.178Z,74.15
2018-01-19T12:24:33.771Z,60.88
2018-01-19T12:27:00.515Z,56.67
2018-01-19T12:29:27.095Z,71.90
2018-01-19T12:31:54.529Z,65.07
2018-01-19T12:34:21.102Z,56.60
2018-01-19T12:36:47.692Z,47.72
2018-01-19T12:39:14.296Z,60.78
2018-01-19T12:44:24.767Z,50.90
2018-01-19T12:46:51.360Z,64.40
2018-01-19T12:49:17.938Z,58.95
2018-01-19T12:51:44.534Z,51.53
2018-01-19T12:54:11.119Z,54.55
2018-01-19T12:56:37.703Z,52.40
2018-01-19T12:59:04.299Z,53.92
2018-01-19T13:01:30.891Z,55.30
2018-01-19T13:03:57.467Z,53.72
2018-01-19T13:06:24.068Z,51.10
2018-01-19T13:08:50.661Z,52.97
2018-01-19T13:11:17.239Z,48.28
2018-01-19T13:13:43.839Z,42.62
2018-01-19T13:16:10.423Z,53.53
2018-01-19T13:18:37.002Z,60.88
2018-01-19T13:21:03.603Z,52.85
2018-01-19T13:23:30.187Z,58.35
2018-01-19T13:25:56.779Z,58.63
2018-01-19T13:28:23.378Z,61.05
2018-01-19T13:30:49.968Z,57.03
2018-01-19T13:33:16.549Z,51.47
2018-01-19T13:35:43.163Z,50.03
2018-01-19T13:38:09.743Z,53.78
2018-01-19T13:40:36.328Z,61.10
2018-01-19T13:43:03.285Z,50.47
2018-01-19T13:45:29.870Z,57.72
2018-01-19T13:47:56.453Z,78.70
2018-01-19T13:50:23.047Z,63.55
2018-01-19T13:52:49.632Z,51.22
2018-01-19T13:55:16.214Z,51.90
2018-01-19T13:57:42.802Z,59.30
2018-01-19T14:00:09.397Z,48.47
2018-01-19T14:02:35.975Z,48.55
2018-01-19T14:05:02.837Z,59.58
2018-01-19T14:07:29.423Z,57.90
2018-01-19T14:09:56.019Z,53.85
2018-01-19T14:12:23.008Z,57.90
2018-01-19T14:14:49.571Z,51.47
2018-01-19T14:17:16.151Z,50.92
2018-01-19T14:19:42.751Z,46.15
2018-01-19T14:22:09.342Z,58.05
2018-01-19T14:24:35.932Z,55.33
2018-01-19T14:27:02.531Z,48.22
2018-01-19T14:29:29.116Z,35.65
2018-01-19T14:31:55.698Z,48.20
2018-01-19T14:34:22.627Z,51.60
2018-01-19T14:36:49.211Z,52.70
2018-01-19T14:39:15.799Z,52.80
2018-01-19T14:41:42.391Z,41.92
2018-01-19T14:44:08.970Z,50.92
2018-01-19T14:46:35.558Z,49.88
2018-01-19T14:49:02.424Z,46.97
2018-01-19T14:51:29.012Z,52.90
2018-01-19T14:53:55.601Z,47.72
2018-01-19T14:56:22.206Z,51.65
2018-01-19T14:58:48.791Z,48.22
2018-01-19T15:01:15.370Z,44.25
2018-01-19T15:03:42.064Z,60.38
2018-01-19T15:06:08.648Z,50.38
2018-01-19T15:08:35.231Z,44.35
2018-01-19T15:11:01.846Z,42.75
2018-01-19T15:13:28.435Z,48.15
2018-01-19T15:15:55.023Z,52.28
2018-01-19T15:18:21.623Z,50.65
2018-01-19T15:20:48.204Z,47.88
2018-01-19T15:23:14.791Z,53.42
2018-01-19T15:25:41.389Z,53.70
2018-01-19T15:28:07.966Z,56.00
2018-01-19T15:30:34.551Z,48.05
2018-01-19T15:33:01.168Z,47.10
2018-01-19T15:35:27.757Z,46.95
2018-01-19T15:37:54.347Z,51.28
2018-01-19T15:40:20.926Z,40.15
2018-01-19T15:42:47.532Z,45.53
2018-01-19T15:45:14.114Z,48.75
2018-01-19T15:47:40.698Z,50.25
2018-01-19T15:50:10.812Z,44.50
2018-01-19T15:52:37.370Z,47.92
2018-01-19T15:55:03.958Z,54.22
2018-01-19T15:57:30.563Z,44.88
2018-01-19T15:59:57.150Z,38.63
2018-01-19T16:02:23.739Z,50.20
2018-01-19T16:04:50.340Z,47.38
2018-01-19T16:07:16.935Z,49.00
2018-01-19T16:09:43.506Z,54.63
2018-01-19T16:12:10.101Z,48.00
2018-01-19T16:14:36.683Z,50.12
2018-01-19T16:17:03.287Z,47.53
2018-01-19T16:19:29.864Z,50.50
2018-01-19T16:21:56.454Z,47.70
2018-01-19T16:24:23.408Z,48.45
2018-01-19T16:26:49.990Z,44.72
2018-01-19T16:29:16.575Z,40.88
2018-01-19T16:31:43.155Z,38.67
2018-01-19T16:34:09.999Z,45.35
2018-01-19T16:36:36.566Z,46.37
2018-01-19T16:39:03.150Z,45.38
2018-01-19T16:41:29.978Z,43.42
2018-01-19T16:43:56.579Z,47.33
2018-01-19T16:46:23.174Z,47.25
2018-01-19T16:48:49.779Z,50.25
2018-01-19T16:51:16.380Z,44.20
2018-01-19T16:53:42.979Z,47.53
2018-01-19T16:56:09.584Z,43.78
2018-01-19T16:58:36.175Z,44.45
2018-01-19T17:01:02.763Z,46.30
2018-01-19T17:03:29.687Z,39.03
2018-01-19T17:05:56.272Z,50.12
2018-01-19T17:08:22.864Z,41.37
2018-01-19T17:10:49.465Z,44.50
2018-01-19T17:13:16.046Z,39.38
2018-01-19T17:15:42.641Z,42.42
2018-01-19T17:18:09.235Z,33.92
2018-01-19T17:20:35.823Z,36.00
2018-01-19T17:23:02.494Z,37.85
2018-01-19T17:25:29.363Z,34.58
2018-01-19T17:27:55.964Z,39.55
2018-01-19T17:30:22.535Z,37.22
2018-01-19T17:32:49.169Z,36.72
2018-01-19T17:35:16.068Z,39.65
2018-01-19T17:37:42.647Z,34.97
2018-01-19T17:40:09.236Z,37.33
2018-01-19T17:42:35.837Z,32.83
2018-01-19T17:45:02.423Z,30.50
2018-01-19T17:47:29.031Z,45.55
2018-01-19T17:49:56.798Z,40.10
2018-01-19T17:52:23.827Z,39.55
2018-01-19T17:55:05.713Z,39.65
2018-01-19T18:15:04.662Z,33.15
2018-01-19T18:26:13.024Z,27.25
2018-01-19T18:28:39.610Z,36.03
2018-01-19T18:31:06.209Z,30.17
2018-01-19T18:33:33.742Z,22.52
2018-01-19T18:36:00.311Z,30.77
2018-01-19T18:38:26.895Z,21.65
2018-01-19T18:40:53.487Z,29.52
2018-01-19T18:43:20.075Z,19.58
2018-01-19T18:45:46.669Z,22.50
2018-01-19T18:48:13.697Z,25.52
2018-01-19T18:50:40.289Z,22.42
2018-01-19T18:53:06.870Z,18.35
2018-01-19T18:55:33.487Z,19.92
2018-01-19T18:58:00.071Z,18.35
2018-01-19T19:00:26.653Z,23.73
2018-01-19T19:02:53.242Z,16.58
2018-01-19T19:05:19.834Z,23.38
2018-01-19T19:07:46.418Z,20.15
2018-01-19T19:10:13.054Z,22.80
2018-01-19T19:12:39.662Z,21.87
2018-01-19T19:15:06.248Z,26.12
2018-01-19T19:17:32.847Z,24.20
2018-01-19T19:19:59.426Z,23.02
2018-01-19T19:22:26.016Z,17.98
2018-01-19T19:24:52.623Z,35.95
2018-01-19T19:27:19.211Z,25.62
2018-01-19T19:29:45.800Z,25.98
2018-01-19T19:32:12.379Z,23.70
2018-01-19T19:34:38.987Z,25.20
2018-01-19T19:37:05.569Z,27.52
2018-01-19T19:39:32.159Z,23.17
2018-01-19T19:41:58.944Z,21.17
2018-01-19T19:44:25.526Z,22.87
2018-01-19T19:46:52.115Z,27.48
2018-01-19T19:49:18.737Z,22.87
2018-01-19T19:51:45.325Z,31.15
2018-01-19T19:54:11.907Z,25.83
2018-01-19T19:56:38.525Z,27.83
2018-01-19T19:59:05.094Z,26.52
2018-01-19T20:01:31.683Z,30.12
2018-01-19T20:03:58.287Z,26.95
2018-01-19T20:06:24.879Z,32.13
2018-01-19T20:08:51.474Z,41.85
2018-01-19T20:11:18.086Z,29.80
2018-01-19T20:13:44.675Z,30.40
2018-01-19T20:16:11.255Z,30.40
2018-01-19T20:18:37.855Z,32.55
2018-01-19T20:21:04.446Z,33.70
2018-01-19T20:23:31.027Z,31.55
2018-01-19T20:25:57.630Z,31.60
2018-01-19T20:28:24.218Z,33.90
2018-01-19T20:30:50.804Z,44.22
2018-01-19T20:33:17.675Z,31.87
2018-01-19T20:35:44.247Z,33.13
2018-01-19T20:38:10.828Z,43.72
2018-01-19T20:40:37.427Z,32.35
2018-01-19T20:43:04.015Z,30.50
2018-01-19T20:45:30.610Z,34.10
2018-01-19T20:47:57.446Z,30.35
2018-01-19T20:50:24.027Z,27.58
2018-01-19T20:52:50.618Z,28.62
2018-01-19T20:55:17.507Z,25.17
2018-01-19T20:57:44.101Z,33.72
2018-01-19T21:00:10.688Z,27.70
2018-01-19T21:02:37.370Z,22.80
2018-01-19T21:05:26.063Z,24.35
2018-01-19T21:07:56.935Z,23.80
2018-01-19T21:10:23.648Z,27.50
2018-01-19T21:12:50.435Z,22.27
2018-01-19T21:15:17.072Z,23.35
2018-01-19T21:17:43.694Z,23.42
2018-01-19T21:20:10.419Z,23.23
2018-01-19T21:22:42.088Z,22.90
2018-01-19T21:25:11.585Z,24.17
2018-01-19T22:01:59.522Z,39.55
2018-01-19T22:04:26.105Z,31.40
2018-01-19T22:06:52.684Z,30.23
2018-01-19T22:09:19.263Z,37.65
2018-01-19T22:11:45.880Z,31.60
2018-01-19T22:14:12.475Z,33.13
2018-01-19T22:16:39.054Z,36.05
2018-01-19T22:19:05.638Z,32.47
2018-01-19T22:21:32.224Z,37.17
2018-01-19T22:23:58.844Z,38.35
2018-01-19T22:26:25.419Z,36.65
